Terminal Aerodrome Forecast
Issued by NWS

Home | Current Version | Previous Version | Text Only | Print | Product List | Glossary On
Versions: 1 2 3 4 5 6 7 8 9 10 11 12 13 14 15 16 17 18 19 20 21 22 23 24
202
FTUS45 KGJT 250543
TAFCNY
TAF
KCNY 250543Z 2506/2606 25012KT P6SM VCSH SCT120
      TEMPO 2506/2508 30023G28KT P6SM BKN120
     FM250900 22009KT P6SM VCSH BKN120
     FM251800 26019G30KT P6SM VCTS SCT090CB BKN120
     FM260200 30014G22KT P6SM VCTS SCT090CB BKN120
     FM260400 30006KT P6SM BKN120=

USA.gov is the U.S. government's official web portal to all federal, state and local government web resources and services.